createdAt,value
2018-07-07T00:01:52.418Z,60.46
2018-07-07T00:04:21.515Z,61.05
2018-07-07T00:06:50.619Z,60.50
2018-07-07T00:09:19.790Z,61.29
2018-07-07T00:11:48.970Z,61.17
2018-07-07T00:14:18.085Z,61.71
2018-07-07T00:16:47.210Z,61.29
2018-07-07T00:19:16.372Z,61.11
2018-07-07T00:21:45.460Z,60.94
2018-07-07T00:24:15.030Z,62.07
2018-07-07T00:26:44.106Z,61.62
2018-07-07T00:29:13.422Z,62.77
2018-07-07T00:31:42.585Z,63.31
2018-07-07T00:34:11.662Z,62.62
2018-07-07T00:36:40.821Z,62.90
2018-07-07T00:39:09.986Z,62.32
2018-07-07T00:41:39.202Z,62.82
2018-07-07T00:44:08.372Z,63.57
2018-07-07T00:46:37.551Z,62.67
2018-07-07T00:49:06.791Z,62.24
2018-07-07T00:51:35.840Z,62.96
2018-07-07T00:54:04.966Z,62.89
2018-07-07T00:56:34.287Z,63.11
2018-07-07T00:59:03.621Z,62.83
2018-07-07T01:01:32.730Z,63.32
2018-07-07T01:04:01.879Z,63.34
2018-07-07T01:06:31.185Z,64.14
2018-07-07T01:09:00.761Z,63.58
2018-07-07T01:11:30.067Z,63.63
2018-07-07T01:13:59.207Z,63.71
2018-07-07T01:16:28.327Z,63.58
2018-07-07T01:18:57.498Z,63.21
2018-07-07T01:21:26.665Z,63.59
2018-07-07T01:23:55.722Z,63.70
2018-07-07T01:26:24.916Z,63.08
2018-07-07T01:28:54.207Z,62.77
2018-07-07T01:31:23.341Z,63.35
2018-07-07T01:33:52.496Z,62.97
2018-07-07T01:36:21.649Z,62.71
2018-07-07T01:38:50.832Z,62.81
2018-07-07T01:41:19.977Z,63.69
2018-07-07T01:43:49.113Z,64.76
2018-07-07T01:46:18.273Z,64.18
2018-07-07T01:48:47.590Z,64.65
2018-07-07T01:51:16.657Z,64.64
2018-07-07T01:53:45.720Z,63.95
2018-07-07T01:56:14.928Z,64.35
2018-07-07T01:58:44.038Z,64.40
2018-07-07T02:01:13.177Z,63.97
2018-07-07T02:03:42.227Z,63.94
2018-07-07T02:06:11.415Z,64.11
2018-07-07T02:08:40.846Z,62.98
2018-07-07T02:11:10.031Z,63.92
2018-07-07T02:13:39.110Z,63.52
2018-07-07T02:16:08.306Z,63.29
2018-07-07T02:18:37.488Z,63.89
2018-07-07T02:21:07.146Z,63.78
2018-07-07T02:23:36.226Z,64.46
2018-07-07T02:26:05.605Z,63.71
2018-07-07T02:28:34.753Z,64.03
2018-07-07T02:31:03.944Z,64.74
2018-07-07T02:33:33.125Z,64.83
2018-07-07T02:36:02.290Z,64.50
2018-07-07T02:38:31.462Z,64.07
2018-07-07T02:41:00.598Z,64.17
2018-07-07T02:43:29.702Z,64.79
2018-07-07T02:45:58.799Z,64.96
2018-07-07T02:48:27.880Z,65.15
2018-07-07T02:50:56.990Z,65.16
2018-07-07T02:53:26.098Z,66.09
2018-07-07T02:55:55.344Z,64.98
2018-07-07T02:58:24.418Z,65.15
2018-07-07T03:00:53.545Z,65.15
2018-07-07T03:03:22.741Z,64.75
2018-07-07T03:05:52.488Z,65.13
2018-07-07T03:08:21.638Z,64.89
2018-07-07T03:10:50.778Z,65.19
2018-07-07T03:13:19.962Z,65.38
2018-07-07T03:15:49.165Z,64.45
2018-07-07T03:18:19.499Z,65.65
2018-07-07T03:20:48.581Z,65.99
2018-07-07T03:23:17.746Z,65.86
2018-07-07T03:25:46.879Z,65.37
2018-07-07T03:28:16.197Z,65.54
2018-07-07T03:30:45.377Z,65.45
2018-07-07T03:33:14.472Z,65.27
2018-07-07T03:35:43.782Z,65.50
2018-07-07T03:38:13.098Z,65.57
2018-07-07T03:40:42.273Z,66.20
2018-07-07T03:43:11.370Z,65.81
2018-07-07T03:45:40.553Z,65.59
2018-07-07T03:48:09.764Z,65.90
2018-07-07T03:50:38.850Z,66.21
2018-07-07T03:53:08.011Z,66.43
2018-07-07T03:55:37.289Z,66.06
2018-07-07T03:58:06.415Z,66.25
2018-07-07T04:00:35.507Z,66.78
2018-07-07T04:03:04.600Z,66.80
2018-07-07T04:05:33.741Z,65.79
2018-07-07T04:08:02.817Z,65.57
2018-07-07T04:10:31.898Z,66.56
2018-07-07T04:13:01.000Z,65.91
2018-07-07T04:15:30.996Z,66.68
2018-07-07T04:18:00.222Z,66.88
2018-07-07T04:20:29.586Z,66.62
2018-07-07T04:22:58.679Z,65.97
2018-07-07T04:25:28.084Z,66.29
2018-07-07T04:27:57.269Z,66.42
2018-07-07T04:30:26.405Z,66.67
2018-07-07T04:32:55.512Z,66.58
2018-07-07T04:35:24.630Z,67.28
2018-07-07T04:37:53.856Z,66.27
2018-07-07T04:40:22.897Z,66.21
2018-07-07T04:42:52.058Z,66.09
2018-07-07T04:45:21.187Z,66.52
2018-07-07T04:47:51.047Z,66.60
2018-07-07T04:50:20.231Z,66.06
2018-07-07T04:52:50.251Z,65.35
2018-07-07T04:55:19.401Z,65.73
2018-07-07T04:57:48.501Z,66.14
2018-07-07T05:00:17.694Z,66.20
2018-07-07T05:02:47.030Z,65.45
2018-07-07T05:05:16.191Z,65.30
2018-07-07T05:07:45.656Z,65.82
2018-07-07T05:10:15.095Z,65.06
2018-07-07T05:12:44.291Z,64.90
2018-07-07T05:15:13.397Z,64.72
2018-07-07T05:17:42.490Z,64.92
2018-07-07T05:20:11.710Z,64.16
2018-07-07T05:22:40.887Z,64.86
2018-07-07T05:25:09.981Z,64.73
2018-07-07T05:27:39.075Z,64.08
2018-07-07T05:30:08.394Z,64.77
2018-07-07T05:32:37.938Z,63.84
2018-07-07T05:35:07.056Z,64.11
2018-07-07T05:37:36.313Z,64.29
2018-07-07T05:40:05.808Z,64.19
2018-07-07T05:42:34.987Z,64.02
2018-07-07T05:45:04.302Z,64.38
2018-07-07T05:47:34.388Z,63.99
2018-07-07T05:50:03.752Z,64.14
2018-07-07T05:52:33.054Z,64.71
2018-07-07T05:55:02.206Z,64.55
2018-07-07T05:57:31.388Z,64.53
2018-07-07T06:00:00.971Z,64.14
2018-07-07T06:02:32.997Z,63.94
2018-07-07T06:05:02.261Z,63.48
2018-07-07T06:07:31.543Z,62.85
2018-07-07T06:10:00.716Z,62.36
2018-07-07T06:12:29.857Z,62.59
2018-07-07T06:14:59.034Z,61.83
2018-07-07T06:17:28.378Z,62.01
2018-07-07T06:19:57.474Z,61.73
2018-07-07T06:22:26.644Z,60.83
2018-07-07T06:24:55.750Z,61.14
2018-07-07T06:27:24.991Z,60.63
2018-07-07T06:29:54.077Z,59.83
2018-07-07T06:32:23.202Z,59.16
2018-07-07T06:34:52.397Z,59.73
2018-07-07T06:37:22.170Z,59.91
2018-07-07T06:39:52.889Z,60.56
2018-07-07T06:42:22.090Z,59.51
2018-07-07T06:44:51.904Z,60.06
2018-07-07T06:47:21.624Z,59.45
2018-07-07T06:49:50.774Z,58.53
2018-07-07T06:52:19.950Z,57.79
2018-07-07T06:54:49.070Z,58.04
2018-07-07T06:57:18.254Z,56.97
2018-07-07T06:59:47.401Z,57.49
2018-07-07T07:02:16.577Z,56.09
2018-07-07T07:04:45.971Z,56.77
2018-07-07T07:07:15.690Z,57.19
2018-07-07T07:09:44.995Z,56.73
2018-07-07T07:12:14.198Z,56.75
2018-07-07T07:14:43.285Z,56.95
2018-07-07T07:17:12.419Z,56.21
2018-07-07T07:19:41.482Z,57.33
2018-07-07T07:22:10.674Z,56.71
2018-07-07T07:24:39.767Z,56.91
2018-07-07T07:27:09.266Z,57.35
2018-07-07T07:30:07.658Z,56.71
2018-07-07T07:32:38.547Z,56.31
2018-07-07T07:35:07.975Z,56.85
2018-07-07T07:37:37.182Z,57.86
2018-07-07T07:40:06.348Z,57.77
2018-07-07T07:42:35.520Z,57.55
2018-07-07T07:45:04.697Z,56.61
2018-07-07T07:47:33.863Z,57.77
2018-07-07T07:50:03.109Z,58.44
2018-07-07T07:52:32.672Z,57.54
2018-07-07T07:55:02.588Z,56.65
2018-07-07T07:57:31.708Z,56.39
2018-07-07T08:00:00.974Z,56.13
2018-07-07T08:02:30.201Z,56.07
2018-07-07T08:05:00.246Z,56.03
2018-07-07T08:07:29.911Z,56.38
2018-07-07T08:09:59.548Z,55.75
2018-07-07T08:12:28.766Z,56.09
2018-07-07T08:14:58.009Z,54.98
2018-07-07T08:17:27.227Z,56.41
2018-07-07T08:19:56.407Z,56.75
2018-07-07T08:22:25.522Z,56.95
2018-07-07T08:24:54.734Z,56.54
2018-07-07T08:27:23.942Z,55.97
2018-07-07T08:29:53.212Z,54.19
2018-07-07T08:32:22.437Z,54.05
2018-07-07T08:34:51.598Z,54.11
2018-07-07T08:37:20.821Z,52.85
2018-07-07T08:39:50.023Z,52.58
2018-07-07T08:42:19.305Z,53.08
2018-07-07T08:44:48.422Z,52.87
2018-07-07T08:47:17.596Z,51.70
2018-07-07T08:49:46.771Z,50.52
2018-07-07T08:52:15.929Z,51.49
2018-07-07T08:54:45.090Z,50.82
2018-07-07T08:57:14.521Z,50.54
2018-07-07T08:59:44.103Z,50.21
2018-07-07T09:02:13.646Z,49.54
2018-07-07T09:04:42.736Z,49.39
2018-07-07T09:07:11.958Z,49.22
2018-07-07T09:09:41.135Z,48.86
2018-07-07T09:12:10.473Z,48.38
2018-07-07T09:14:39.904Z,48.01
2018-07-07T09:17:09.105Z,46.79
2018-07-07T09:19:38.438Z,47.81
2018-07-07T09:22:07.684Z,48.09
2018-07-07T09:24:36.977Z,46.35
2018-07-07T09:27:06.160Z,46.65
2018-07-07T09:29:35.268Z,46.66
2018-07-07T09:32:04.921Z,46.79
2018-07-07T09:34:34.938Z,44.64
2018-07-07T09:37:04.251Z,44.79
2018-07-07T09:39:33.529Z,46.09
2018-07-07T09:42:02.838Z,45.37
2018-07-07T09:44:32.736Z,44.75
2018-07-07T09:47:02.017Z,44.57
2018-07-07T09:49:31.192Z,43.81
2018-07-07T09:52:00.277Z,45.61
2018-07-07T09:54:29.578Z,45.33
2018-07-07T09:56:59.051Z,44.97
2018-07-07T09:59:28.261Z,44.18
2018-07-07T10:01:57.455Z,44.67
2018-07-07T10:04:26.813Z,44.61
2018-07-07T10:06:56.230Z,45.07
2018-07-07T10:09:25.446Z,44.54
2018-07-07T10:11:54.658Z,45.16
2018-07-07T10:14:23.881Z,45.32
2018-07-07T10:16:53.139Z,45.11
2018-07-07T10:19:22.950Z,44.75
2018-07-07T10:21:52.133Z,45.21
2018-07-07T10:24:21.274Z,45.21
2018-07-07T10:26:50.452Z,44.75
2018-07-07T10:29:19.680Z,44.86
2018-07-07T10:31:48.867Z,44.48
2018-07-07T10:34:18.379Z,43.13
2018-07-07T10:36:47.514Z,43.30
2018-07-07T10:39:16.667Z,44.15
2018-07-07T10:41:45.965Z,43.74
2018-07-07T10:44:15.268Z,42.51
2018-07-07T10:46:44.523Z,42.14
2018-07-07T10:49:13.659Z,41.53
2018-07-07T10:51:42.825Z,40.88
2018-07-07T10:54:12.024Z,40.25
2018-07-07T10:56:41.198Z,40.21
2018-07-07T10:59:10.326Z,40.49
2018-07-07T11:01:39.479Z,41.30
2018-07-07T11:04:08.655Z,41.19
2018-07-07T11:06:37.756Z,42.40
2018-07-07T11:09:06.905Z,43.16
2018-07-07T11:11:36.055Z,44.06
2018-07-07T11:14:05.353Z,44.03
2018-07-07T11:16:34.638Z,44.35
2018-07-07T11:19:03.776Z,44.42
2018-07-07T11:21:32.934Z,44.49
2018-07-07T11:24:02.091Z,42.73
2018-07-07T11:26:31.360Z,42.04
2018-07-07T11:29:00.707Z,40.64
2018-07-07T11:31:29.806Z,40.57
2018-07-07T11:33:58.976Z,42.58
2018-07-07T11:36:28.185Z,42.67
2018-07-07T11:38:57.320Z,42.07
2018-07-07T11:41:26.884Z,40.48
2018-07-07T11:43:56.639Z,41.78
2018-07-07T11:46:25.840Z,40.80
2018-07-07T11:48:55.126Z,39.88
2018-07-07T11:51:24.238Z,40.44
2018-07-07T11:53:53.713Z,40.16
2018-07-07T11:56:22.809Z,39.56
2018-07-07T11:58:51.965Z,40.36
2018-07-07T12:01:21.168Z,41.15
2018-07-07T12:03:50.294Z,40.35
2018-07-07T12:06:20.178Z,40.55
2018-07-07T12:08:49.309Z,40.64
2018-07-07T12:11:18.424Z,41.98
2018-07-07T12:13:47.873Z,41.57
2018-07-07T12:16:17.050Z,41.47
2018-07-07T12:18:46.315Z,42.83
2018-07-07T12:21:15.492Z,42.31
2018-07-07T12:23:45.818Z,42.82
2018-07-07T12:26:15.047Z,43.27
2018-07-07T12:28:44.121Z,43.35
2018-07-07T12:31:13.293Z,43.36
2018-07-07T12:33:43.568Z,42.80
2018-07-07T12:36:13.903Z,43.19
2018-07-07T12:38:43.692Z,41.07
2018-07-07T12:41:13.136Z,40.46
2018-07-07T12:43:42.484Z,40.12
2018-07-07T12:46:11.485Z,39.12
2018-07-07T12:48:40.682Z,36.14
2018-07-07T12:51:10.046Z,37.52
2018-07-07T12:53:39.743Z,39.27
2018-07-07T12:56:09.536Z,40.19
2018-07-07T12:58:40.042Z,40.42
2018-07-07T13:01:10.550Z,39.38
2018-07-07T13:03:39.966Z,38.84
2018-07-07T13:06:09.067Z,38.08
2018-07-07T13:08:38.166Z,37.40
2018-07-07T13:11:07.407Z,38.06
2018-07-07T13:13:36.944Z,37.67
2018-07-07T13:16:06.204Z,37.13
2018-07-07T13:18:35.791Z,36.61
2018-07-07T13:21:05.093Z,36.97
2018-07-07T13:23:34.303Z,36.36
2018-07-07T13:26:03.555Z,37.51
2018-07-07T13:28:32.748Z,37.01
2018-07-07T13:31:01.938Z,37.10
2018-07-07T13:33:31.068Z,37.12
2018-07-07T13:36:00.233Z,36.91
2018-07-07T13:38:29.422Z,38.05
2018-07-07T13:40:58.697Z,38.08
2018-07-07T13:43:27.796Z,37.69
2018-07-07T13:45:56.915Z,37.79
2018-07-07T13:48:27.790Z,37.14
2018-07-07T13:50:57.213Z,36.49
2018-07-07T13:53:26.774Z,37.27
2018-07-07T13:55:55.962Z,36.23
2018-07-07T13:58:25.171Z,35.40
2018-07-07T14:00:54.370Z,35.43
2018-07-07T14:03:23.506Z,34.44
2018-07-07T14:05:52.583Z,33.55
2018-07-07T14:08:21.773Z,35.39
2018-07-07T14:10:51.051Z,35.78
2018-07-07T14:13:20.190Z,34.78
2018-07-07T14:15:49.339Z,34.25
2018-07-07T14:18:18.541Z,33.52
2018-07-07T14:20:47.737Z,34.70
2018-07-07T14:23:16.829Z,34.46
2018-07-07T14:25:46.333Z,33.71
2018-07-07T14:28:15.449Z,32.10
2018-07-07T14:30:44.651Z,31.78
2018-07-07T14:33:13.828Z,30.00
2018-07-07T14:35:43.021Z,31.29
2018-07-07T14:38:12.149Z,32.54
2018-07-07T14:40:54.234Z,32.64
2018-07-07T14:43:23.807Z,33.26
2018-07-07T14:46:13.593Z,33.88
2018-07-07T14:48:42.726Z,33.73
2018-07-07T14:51:11.910Z,34.49
2018-07-07T14:53:41.017Z,33.89
2018-07-07T14:56:11.056Z,34.33
2018-07-07T14:58:40.145Z,33.51
2018-07-07T15:01:09.450Z,32.81
2018-07-07T15:03:38.609Z,32.91
2018-07-07T15:06:08.084Z,32.05
2018-07-07T15:08:37.220Z,33.35
2018-07-07T15:11:06.490Z,31.30
2018-07-07T15:13:35.688Z,31.75
2018-07-07T15:16:04.838Z,32.99
2018-07-07T15:18:34.881Z,31.92
2018-07-07T15:21:04.666Z,32.22
2018-07-07T15:23:34.198Z,31.57
2018-07-07T15:26:03.431Z,30.82
2018-07-07T15:28:32.510Z,31.70
2018-07-07T15:31:01.614Z,31.36
2018-07-07T15:33:30.747Z,32.36
2018-07-07T15:35:59.926Z,31.91
2018-07-07T15:38:29.297Z,31.79
2018-07-07T15:40:58.520Z,32.87
2018-07-07T15:43:27.660Z,33.55
2018-07-07T15:45:56.846Z,32.65
2018-07-07T15:48:25.942Z,32.60
2018-07-07T15:50:55.323Z,32.93
2018-07-07T15:53:24.806Z,33.00
2018-07-07T15:55:54.762Z,32.85
2018-07-07T15:58:23.959Z,32.05
2018-07-07T16:00:53.234Z,30.90
2018-07-07T16:03:22.362Z,30.15
2018-07-07T16:05:51.467Z,30.23
2018-07-07T16:08:20.568Z,30.35
2018-07-07T16:10:49.702Z,29.96
2018-07-07T16:13:18.870Z,28.67
2018-07-07T16:15:48.010Z,28.21
2018-07-07T16:18:17.126Z,26.90
2018-07-07T16:20:47.250Z,27.36
2018-07-07T16:23:16.383Z,26.96
2018-07-07T16:25:45.697Z,27.14
2018-07-07T16:28:14.897Z,28.54
2018-07-07T16:30:44.105Z,29.76
2018-07-07T16:33:13.377Z,30.22
2018-07-07T16:35:42.487Z,29.36
2018-07-07T16:38:11.735Z,29.94
2018-07-07T16:40:40.917Z,28.73
2018-07-07T16:43:10.014Z,28.80
2018-07-07T16:45:39.054Z,29.09
2018-07-07T16:48:08.145Z,29.23
2018-07-07T16:50:37.323Z,30.68
2018-07-07T16:53:06.401Z,29.68
2018-07-07T16:55:35.513Z,30.48
2018-07-07T16:58:04.869Z,29.63
2018-07-07T17:00:34.700Z,29.99
2018-07-07T17:03:04.739Z,30.19
2018-07-07T17:05:33.885Z,31.23
2018-07-07T17:08:04.102Z,30.39
2018-07-07T17:10:33.389Z,30.43
2018-07-07T17:13:03.455Z,31.18
2018-07-07T17:15:33.421Z,31.85
2018-07-07T17:18:04.263Z,31.93
2018-07-07T17:20:34.034Z,32.99
2018-07-07T17:23:03.226Z,33.01
2018-07-07T17:25:32.341Z,33.85
2018-07-07T17:28:01.625Z,33.73
2018-07-07T17:30:30.724Z,33.25
2018-07-07T17:32:59.923Z,33.91
2018-07-07T17:35:30.345Z,32.72
2018-07-07T17:37:59.558Z,32.25
2018-07-07T17:40:28.761Z,32.70
2018-07-07T17:42:57.887Z,31.68
2018-07-07T17:45:27.005Z,32.04
2018-07-07T17:47:56.197Z,31.30
2018-07-07T17:50:25.521Z,31.89
2018-07-07T17:52:54.647Z,32.72
2018-07-07T17:55:23.813Z,32.28
2018-07-07T17:57:53.682Z,31.86
2018-07-07T18:00:22.755Z,33.08
2018-07-07T18:02:52.470Z,32.43
2018-07-07T18:05:21.759Z,32.23
2018-07-07T18:07:50.855Z,33.38
2018-07-07T18:10:20.047Z,31.92
2018-07-07T18:12:49.187Z,33.38
2018-07-07T18:15:18.375Z,33.40
2018-07-07T18:17:48.388Z,33.53
2018-07-07T18:20:17.601Z,33.21
2018-07-07T18:22:46.814Z,32.62
2018-07-07T18:25:16.992Z,33.53
2018-07-07T18:27:46.076Z,31.50
2018-07-07T18:30:15.280Z,32.93
2018-07-07T18:32:44.772Z,32.71
2018-07-07T18:35:13.984Z,33.62
2018-07-07T18:37:43.317Z,33.11
2018-07-07T18:40:12.477Z,33.32
2018-07-07T18:42:41.666Z,33.49
2018-07-07T18:45:10.843Z,33.62
2018-07-07T18:47:40.010Z,33.08
2018-07-07T18:50:09.145Z,33.25
2018-07-07T18:52:38.418Z,33.06
2018-07-07T18:55:07.454Z,32.77
2018-07-07T18:57:36.672Z,33.20
2018-07-07T19:00:05.934Z,33.80
2018-07-07T19:02:35.035Z,33.15
2018-07-07T19:05:04.164Z,33.26
2018-07-07T19:07:33.852Z,34.30
2018-07-07T19:10:03.066Z,32.94
2018-07-07T19:12:32.439Z,32.93
2018-07-07T19:15:06.858Z,32.71
2018-07-07T19:17:35.986Z,33.68
2018-07-07T19:20:05.084Z,32.95
2018-07-07T19:22:39.445Z,33.43
2018-07-07T19:25:13.937Z,33.76
2018-07-07T19:27:43.104Z,32.67
2018-07-07T19:30:12.310Z,34.27
2018-07-07T19:34:51.613Z,34.43
2018-07-07T19:37:21.917Z,33.85
2018-07-07T19:39:51.079Z,34.84
2018-07-07T19:42:20.321Z,34.92
2018-07-07T19:44:49.735Z,34.01
2018-07-07T19:47:18.854Z,34.13
2018-07-07T19:49:48.080Z,34.02
2018-07-07T19:52:17.379Z,34.16
2018-07-07T19:54:46.650Z,34.32
2018-07-07T19:57:15.814Z,34.65
2018-07-07T19:59:45.176Z,34.38
2018-07-07T20:02:14.336Z,35.03
2018-07-07T20:04:43.463Z,34.46
2018-07-07T20:07:12.640Z,35.43
2018-07-07T20:09:42.884Z,34.63
2018-07-07T20:12:12.003Z,35.60
2018-07-07T20:14:41.106Z,35.91
2018-07-07T20:17:11.591Z,35.98
2018-07-07T20:20:57.611Z,35.83
2018-07-07T20:23:27.883Z,36.29
2018-07-07T20:26:02.826Z,36.38
2018-07-07T20:28:37.376Z,35.69
2018-07-07T20:31:06.584Z,36.16
2018-07-07T20:33:35.781Z,36.36
2018-07-07T20:36:04.961Z,37.17
2018-07-07T20:38:34.050Z,37.01
2018-07-07T20:41:03.257Z,36.89
2018-07-07T20:43:32.442Z,36.55
2018-07-07T20:46:01.553Z,35.46
2018-07-07T20:48:30.638Z,35.61
2018-07-07T20:50:59.754Z,35.67
2018-07-07T20:53:29.090Z,35.89
2018-07-07T20:55:58.236Z,36.21
2018-07-07T20:58:27.526Z,36.87
2018-07-07T21:00:56.712Z,35.78
2018-07-07T21:03:25.909Z,36.87
2018-07-07T21:05:54.976Z,37.47
2018-07-07T21:08:24.073Z,39.02
2018-07-07T21:10:53.361Z,39.68
2018-07-07T21:13:22.462Z,40.54
2018-07-07T21:15:51.575Z,40.89
2018-07-07T21:18:20.694Z,41.31
2018-07-07T21:20:49.807Z,42.51
2018-07-07T21:23:19.031Z,42.89
2018-07-07T21:25:48.166Z,42.07
2018-07-07T21:28:17.290Z,42.76
2018-07-07T21:30:46.470Z,42.01
2018-07-07T21:33:15.758Z,43.33
2018-07-07T21:35:44.853Z,43.18
2018-07-07T21:38:14.058Z,43.89
2018-07-07T21:40:43.453Z,44.28
2018-07-07T21:43:12.595Z,44.82
2018-07-07T21:45:41.709Z,44.38
2018-07-07T21:48:10.785Z,44.02
2018-07-07T21:50:39.978Z,43.92
2018-07-07T21:53:09.098Z,44.88
2018-07-07T21:55:38.175Z,45.95
2018-07-07T21:58:13.195Z,45.84
2018-07-07T22:00:58.897Z,45.65
2018-07-07T22:03:33.404Z,45.00
2018-07-07T22:06:06.489Z,43.84
2018-07-07T22:08:36.529Z,44.21
2018-07-07T22:11:05.923Z,44.90
2018-07-07T22:13:35.067Z,45.19
2018-07-07T22:16:04.418Z,46.32
2018-07-07T22:18:34.345Z,46.27
2018-07-07T22:21:14.695Z,45.79
2018-07-07T22:23:43.803Z,46.03
2018-07-07T22:26:13.186Z,52.37
2018-07-07T22:28:42.337Z,52.11
2018-07-07T22:31:11.486Z,48.46
2018-07-07T22:33:40.525Z,48.77
2018-07-07T22:36:15.107Z,48.27
2018-07-07T22:38:49.614Z,48.40
2018-07-07T22:41:18.735Z,49.32
2018-07-07T22:43:47.928Z,49.51
2018-07-07T22:46:17.234Z,49.75
2018-07-07T22:48:46.324Z,50.24
2018-07-07T22:51:15.459Z,50.39
2018-07-07T22:53:44.962Z,51.04
2018-07-07T22:56:14.108Z,50.99
2018-07-07T22:58:43.254Z,52.61
2018-07-07T23:01:12.411Z,52.22
2018-07-07T23:03:41.506Z,51.65
2018-07-07T23:06:10.637Z,51.93
2018-07-07T23:08:39.759Z,52.33
2018-07-07T23:11:08.860Z,51.87
2018-07-07T23:13:37.938Z,52.40
2018-07-07T23:16:07.078Z,52.69
2018-07-07T23:18:36.234Z,52.01
2018-07-07T23:21:06.106Z,53.07
2018-07-07T23:23:35.307Z,53.10
2018-07-07T23:26:04.455Z,53.16
2018-07-07T23:28:33.572Z,52.71
2018-07-07T23:31:02.717Z,53.33
2018-07-07T23:33:31.993Z,53.78
2018-07-07T23:36:01.143Z,53.53
2018-07-07T23:38:30.399Z,54.78
2018-07-07T23:40:59.517Z,54.08
2018-07-07T23:43:28.723Z,54.90
2018-07-07T23:45:57.947Z,54.97
2018-07-07T23:48:27.098Z,54.64
2018-07-07T23:50:56.576Z,54.46
2018-07-07T23:53:25.831Z,54.23
2018-07-07T23:55:55.006Z,54.81
2018-07-07T23:58:24.090Z,55.30
